Time;durP1;ratioP1;P1;durP2;ratioP2;P2;SDS_P1;SDS_P2;PMS_P1;PMS_P2;Temp;Humidity;BMP_temperature;BMP_pressure;BME280_temperature;BME280_humidity;BME280_pressure;Samples;Min_cycle;Max_cycle;Signal;HPM_P1;HPM_P2
2022/05/12 00:00:50;;;;;;;3.95;3.22;;;;;;;20.71;45.36;99589.78;4956213;28;101003;-85
2022/05/12 00:03:19;;;;;;;8.00;3.70;;;;;;;20.64;45.34;99574.44;4962870;28;96887;-84
2022/05/12 00:05:45;;;;;;;8.90;3.72;;;;;;;20.66;45.54;99588.50;4958999;28;97423;-85
2022/05/12 00:08:11;;;;;;;7.22;3.60;;;;;;;20.50;45.86;99580.94;4975379;28;98482;-84
2022/05/12 00:10:37;;;;;;;10.98;3.55;;;;;;;20.60;45.64;99587.22;4976168;28;101555;-85
2022/05/12 00:13:03;;;;;;;5.32;3.70;;;;;;;20.50;46.08;99583.63;4976397;28;97580;-85
2022/05/12 00:15:31;;;;;;;4.78;3.55;;;;;;;20.46;45.76;99583.03;4992079;28;96752;-85
2022/05/12 00:17:57;;;;;;;6.00;3.70;;;;;;;20.44;46.07;99573.50;4991856;28;97954;-85
2022/05/12 00:20:24;;;;;;;4.53;3.65;;;;;;;20.32;46.37;99568.25;4991920;28;97503;-84
2022/05/12 00:22:50;;;;;;;5.35;3.20;;;;;;;20.40;46.26;99578.25;4959802;28;97266;-86
2022/05/12 00:25:19;;;;;;;5.93;3.85;;;;;;;20.24;46.52;99561.88;4959210;28;96960;-85
2022/05/12 00:27:45;;;;;;;8.50;3.50;;;;;;;20.33;46.34;99572.63;4975353;28;101553;-85
2022/05/12 00:30:11;;;;;;;5.78;3.67;;;;;;;20.24;46.74;99568.06;4965661;28;101733;-84
2022/05/12 00:32:39;;;;;;;3.95;3.45;;;;;;;20.27;46.55;99573.13;4972026;28;96794;-85
2022/05/12 00:35:06;;;;;;;7.70;3.72;;;;;;;20.08;46.56;99552.56;4960079;28;96974;-85
2022/05/12 00:37:31;;;;;;;6.47;3.58;;;;;;;20.20;46.78;99579.97;4974773;28;101534;-85
2022/05/12 00:39:57;;;;;;;8.10;3.47;;;;;;;20.13;46.79;99560.16;4956286;28;101511;-85
2022/05/12 00:42:22;;;;;;;6.28;3.80;;;;;;;19.90;46.85;99544.31;4974724;28;96859;-85
2022/05/12 00:44:48;;;;;;;4.15;3.40;;;;;;;20.08;47.12;99578.34;4992991;28;96841;-85
2022/05/12 00:47:13;;;;;;;6.13;3.60;;;;;;;20.05;47.12;99574.13;4957475;28;100318;-85
2022/05/12 00:49:40;;;;;;;3.80;3.42;;;;;;;20.08;47.01;99581.00;4972179;28;101279;-84
2022/05/12 00:52:10;;;;;;;6.00;3.70;;;;;;;20.08;47.14;99573.88;4975065;28;96824;-83
2022/05/12 00:54:40;;;;;;;4.80;3.30;;;;;;;20.10;47.48;99574.59;4949803;28;97114;-84
2022/05/12 00:57:08;;;;;;;5.15;3.72;;;;;;;20.12;47.50;99577.94;4954614;28;101591;-83
2022/05/12 00:59:34;;;;;;;5.50;3.72;;;;;;;20.13;47.66;99570.81;4983387;28;97501;-84
2022/05/12 01:02:02;;;;;;;6.80;4.03;;;;;;;20.21;47.49;99564.81;4972058;28;96620;-85
2022/05/12 01:04:29;;;;;;;7.88;3.78;;;;;;;20.10;47.98;99573.72;4955388;28;97336;-84
2022/05/12 01:06:55;;;;;;;5.65;3.67;;;;;;;20.07;47.92;99573.97;4970073;28;100006;-85
2022/05/12 01:09:21;;;;;;;3.75;3.20;;;;;;;20.12;48.06;99569.94;4958711;28;101331;-85
2022/05/12 01:11:48;;;;;;;5.88;4.18;;;;;;;20.08;48.32;99557.88;4955655;28;97196;-85
2022/05/12 01:14:14;;;;;;;7.18;4.25;;;;;;;20.10;48.36;99568.38;4983145;28;96836;-84
2022/05/12 01:16:45;;;;;;;5.93;3.67;;;;;;;20.08;48.17;99575.69;4970301;28;99135;-85
2022/05/12 01:19:15;;;;;;;4.43;3.33;;;;;;;20.15;48.38;99573.34;4974248;28;101296;-84
2022/05/12 01:21:41;;;;;;;9.63;3.42;;;;;;;20.09;48.33;99561.38;4942350;28;97097;-84
2022/05/12 01:24:07;;;;;;;6.20;3.63;;;;;;;20.09;48.44;99569.38;4989041;28;97038;-83
2022/05/12 01:26:33;;;;;;;6.30;3.90;;;;;;;20.09;48.59;99566.72;4941490;28;101090;-84
2022/05/12 01:28:59;;;;;;;4.55;3.67;;;;;;;20.03;48.62;99565.41;4949514;28;101558;-84
2022/05/12 01:31:25;;;;;;;6.13;3.65;;;;;;;20.04;48.74;99567.13;4957354;28;96764;-84
2022/05/12 01:33:51;;;;;;;4.72;3.60;;;;;;;20.07;48.71;99574.84;4975242;28;97434;-84
2022/05/12 01:36:19;;;;;;;4.93;3.92;;;;;;;20.08;48.91;99568.53;4973408;28;101572;-85
2022/05/12 01:38:44;;;;;;;6.22;3.97;;;;;;;20.09;48.65;99572.88;4974904;28;100643;-85
2022/05/12 01:41:10;;;;;;;5.45;3.80;;;;;;;20.10;48.71;99568.38;4957671;28;96804;-85
2022/05/12 01:43:35;;;;;;;7.25;3.55;;;;;;;20.13;48.69;99560.16;4962325;28;96933;-84
2022/05/12 01:46:01;;;;;;;7.00;3.70;;;;;;;20.11;48.61;99572.75;4970539;28;101485;-84
2022/05/12 01:48:27;;;;;;;5.10;3.75;;;;;;;20.08;48.89;99570.34;4974617;28;101127;-84
2022/05/12 01:50:53;;;;;;;8.18;3.90;;;;;;;20.03;49.10;99565.41;4974470;28;96726;-85
2022/05/12 01:53:18;;;;;;;5.13;3.40;;;;;;;20.09;48.92;99556.91;4974861;28;97908;-85
2022/05/12 01:55:47;;;;;;;4.50;3.50;;;;;;;19.95;49.18;99562.56;4957183;28;100210;-85
2022/05/12 01:58:12;;;;;;;4.30;3.80;;;;;;;19.99;49.34;99565.81;4973776;28;98474;-85
2022/05/12 02:00:38;;;;;;;7.38;3.88;;;;;;;19.93;49.42;99547.72;4974448;28;97309;-84
2022/05/12 02:03:04;;;;;;;4.88;3.63;;;;;;;19.99;49.45;99563.16;4955257;28;96993;-84
2022/05/12 02:05:31;;;;;;;6.35;3.10;;;;;;;19.96;50.02;99566.94;4976654;28;98279;-85
2022/05/12 02:07:57;;;;;;;6.80;3.65;;;;;;;19.93;49.95;99566.34;4954898;28;101571;-84
2022/05/12 02:10:26;;;;;;;13.45;4.40;;;;;;;19.95;50.10;99557.22;4970931;28;96730;-84
2022/05/12 02:12:52;;;;;;;7.05;3.80;;;;;;;20.08;49.48;99563.22;4972434;28;96933;-84
2022/05/12 02:15:18;;;;;;;5.35;3.50;;;;;;;20.12;49.03;99563.78;4956831;28;100573;-84
2022/05/12 02:17:44;;;;;;;4.57;3.35;;;;;;;20.07;48.93;99572.19;4957246;28;101382;-84
2022/05/12 02:20:11;;;;;;;7.32;3.58;;;;;;;20.13;48.74;99562.81;4970475;28;96656;-83
2022/05/12 02:22:37;;;;;;;3.72;3.35;;;;;;;20.20;48.35;99566.63;4974248;28;96788;-84
2022/05/12 02:25:04;;;;;;;7.22;3.15;;;;;;;20.28;47.69;99558.00;4957674;28;101189;-84
2022/05/12 02:27:30;;;;;;;3.65;3.20;;;;;;;20.37;47.29;99557.19;4956492;28;101454;-84
2022/05/12 02:29:55;;;;;;;5.95;3.38;;;;;;;20.48;46.91;99566.94;4993869;28;96794;-84
2022/05/12 02:32:22;;;;;;;4.45;3.38;;;;;;;20.62;46.31;99558.56;4975248;28;96870;-85
2022/05/12 02:34:47;;;;;;;4.20;2.80;;;;;;;20.73;46.30;99552.31;4978244;28;98398;-84
2022/05/12 02:37:13;;;;;;;6.38;3.28;;;;;;;20.80;46.09;99553.47;4958169;28;101878;-83
2022/05/12 02:39:40;;;;;;;5.13;3.30;;;;;;;20.86;45.97;99546.75;4974357;28;96753;-84
2022/05/12 02:42:08;;;;;;;13.27;3.95;;;;;;;20.87;45.67;99551.91;4971541;28;96987;-84
2022/05/12 02:44:34;;;;;;;6.00;3.00;;;;;;;20.89;45.58;99541.13;4973496;28;101259;-85
2022/05/12 02:47:00;;;;;;;8.32;3.30;;;;;;;20.88;45.61;99545.59;4976578;28;101128;-84
2022/05/12 02:49:26;;;;;;;5.85;3.28;;;;;;;20.97;45.71;99538.59;4969014;28;97129;-84
2022/05/12 02:51:52;;;;;;;5.97;3.40;;;;;;;20.96;45.57;99553.75;4972822;28;97073;-85
2022/05/12 02:54:18;;;;;;;5.63;3.35;;;;;;;20.99;45.50;99541.97;4982357;28;100926;-84
2022/05/12 02:56:46;;;;;;;9.13;3.25;;;;;;;21.02;45.17;99539.88;4991486;28;101634;-84
2022/05/12 02:59:12;;;;;;;6.60;3.33;;;;;;;21.08;45.01;99546.47;4974382;28;96594;-83
2022/05/12 03:01:38;;;;;;;4.28;2.53;;;;;;;21.06;45.09;99540.47;4976092;28;96837;-85
2022/05/12 03:04:04;;;;;;;4.18;3.38;;;;;;;21.25;44.88;99556.47;4961102;28;99913;-85
2022/05/12 03:06:29;;;;;;;4.50;3.25;;;;;;;21.18;44.88;99544.69;4974018;28;98473;-85
2022/05/12 03:08:56;;;;;;;10.82;3.22;;;;;;;21.21;44.76;99555.09;4960491;28;96773;-84
2022/05/12 03:11:21;;;;;;;8.65;3.38;;;;;;;21.31;44.56;99557.75;4960163;28;96891;-85
2022/05/12 03:13:49;;;;;;;10.48;3.45;;;;;;;21.35;44.20;99547.63;4993970;28;98123;-84
2022/05/12 03:16:16;;;;;;;6.50;3.10;;;;;;;21.34;44.39;99549.47;4959389;28;101160;-84
2022/05/12 03:18:44;;;;;;;7.50;4.18;;;;;;;21.39;44.49;99555.25;4957914;28;96900;-85
2022/05/12 03:21:09;;;;;;;6.72;3.10;;;;;;;21.44;44.34;99560.19;4964022;28;97934;-85
2022/05/12 03:23:35;;;;;;;6.40;3.20;;;;;;;21.45;44.38;99549.34;4972963;28;101033;-85
2022/05/12 03:26:01;;;;;;;6.03;2.90;;;;;;;21.51;44.17;99555.97;4991909;28;101429;-85
2022/05/12 03:28:26;;;;;;;6.97;3.15;;;;;;;21.49;44.46;99560.59;4957023;28;96687;-84
2022/05/12 03:30:52;;;;;;;12.93;3.00;;;;;;;21.44;44.58;99555.69;4976258;28;97332;-85
2022/05/12 03:33:18;;;;;;;10.18;3.50;;;;;;;21.42;44.41;99538.97;4959774;28;100650;-84
2022/05/12 03:35:45;;;;;;;8.27;3.38;;;;;;;21.44;44.39;99550.34;4976440;28;98323;-85
2022/05/12 03:38:10;;;;;;;6.10;2.72;;;;;;;21.57;44.41;99558.06;4976709;28;96663;-84
2022/05/12 03:40:36;;;;;;;8.32;3.30;;;;;;;21.56;44.35;99555.56;4975134;28;97079;-84
2022/05/12 03:43:01;;;;;;;9.63;4.05;;;;;;;21.54;44.14;99552.19;4977052;28;98130;-84
2022/05/12 03:45:28;;;;;;;5.57;2.95;;;;;;;21.62;44.31;99566.50;4958123;28;101142;-85
2022/05/12 03:47:55;;;;;;;6.28;3.20;;;;;;;21.62;44.45;99558.50;4993584;28;96656;-85
2022/05/12 03:50:23;;;;;;;6.63;3.40;;;;;;;21.77;44.28;99558.06;4975176;28;96941;-83
2022/05/12 03:52:50;;;;;;;7.95;3.15;;;;;;;21.62;44.27;99552.31;4970839;28;97497;-84
2022/05/12 03:55:18;;;;;;;8.48;3.40;;;;;;;21.59;44.36;99531.25;4970718;28;101248;-83
2022/05/12 03:57:47;;;;;;;5.70;3.30;;;;;;;21.73;44.07;99554.84;4992207;28;97140;-85
2022/05/12 04:00:18;;;;;;;9.25;2.90;;;;;;;21.73;44.05;99562.84;4960534;28;97072;-84
2022/05/12 04:02:46;;;;;;;2.83;2.50;;;;;;;21.77;43.96;99555.41;4956459;28;99549;-85
2022/05/12 04:05:12;;;;;;;11.40;3.63;;;;;;;21.69;44.07;99537.41;4970326;28;101312;-84
2022/05/12 04:07:42;;;;;;;4.88;2.72;;;;;;;21.87;43.50;99537.50;4975114;28;97068;-85
2022/05/12 04:10:09;;;;;;;6.88;3.03;;;;;;;22.00;43.80;99561.28;4975946;28;96869;-85
2022/05/12 04:12:34;;;;;;;7.10;2.95;;;;;;;22.03;43.60;99558.31;4974753;28;98119;-84
2022/05/12 04:15:00;;;;;;;8.40;3.47;;;;;;;21.99;43.68;99563.09;4956624;28;100851;-83
2022/05/12 04:17:25;;;;;;;4.75;3.50;;;;;;;22.22;43.48;99565.44;4962737;28;97073;-83
2022/05/12 04:19:52;;;;;;;7.82;3.10;;;;;;;22.09;43.83;99573.75;4970595;28;96947;-84
2022/05/12 04:22:19;;;;;;;6.78;2.90;;;;;;;21.99;44.16;99580.94;4971736;28;98362;-83
2022/05/12 04:24:45;;;;;;;5.75;2.85;;;;;;;22.37;43.50;99580.06;4974649;28;98094;-84
2022/05/12 04:27:11;;;;;;;9.82;2.90;;;;;;;22.55;42.96;99583.63;4959404;28;97331;-85
2022/05/12 04:29:44;;;;;;;8.43;3.00;;;;;;;22.86;42.62;99582.50;4959583;28;97193;-85
2022/05/12 04:32:10;;;;;;;7.68;2.88;;;;;;;22.97;42.60;99577.81;4975850;28;101654;-84
2022/05/12 04:37:30;;;;;;;7.80;3.30;;;;;;;22.75;42.92;99581.72;4975309;28;96677;-84
2022/05/12 04:40:08;;;;;;;7.53;3.10;;;;;;;22.43;43.12;99563.44;4957055;28;97201;-84
2022/05/12 04:42:33;;;;;;;7.90;3.40;;;;;;;22.80;42.86;99584.78;4989161;28;101075;-84
2022/05/12 04:44:59;;;;;;;10.43;3.30;;;;;;;23.17;42.31;99586.59;4958923;28;101072;-84
2022/05/12 04:47:24;;;;;;;14.32;3.50;;;;;;;23.48;41.25;99587.06;4958134;28;97225;-83
2022/05/12 04:49:50;;;;;;;10.57;3.40;;;;;;;23.77;40.99;99577.16;4992917;28;98272;-84
2022/05/12 04:52:16;;;;;;;10.57;3.25;;;;;;;24.13;40.98;99584.13;4955803;28;101690;-84
2022/05/12 04:54:42;;;;;;;5.32;2.83;;;;;;;24.31;40.99;99585.91;4991753;28;98937;-85
2022/05/12 04:57:08;;;;;;;10.30;3.45;;;;;;;24.17;41.32;99590.00;4971946;28;97354;-84
2022/05/12 04:59:34;;;;;;;11.65;3.40;;;;;;;24.05;41.20;99575.19;4971820;28;97186;-84
2022/05/12 05:02:00;;;;;;;7.57;3.20;;;;;;;24.50;40.47;99606.34;4974152;28;100310;-84
2022/05/12 05:04:26;;;;;;;7.25;3.40;;;;;;;24.89;39.48;99595.94;4960470;28;101900;-86
2022/05/12 05:06:52;;;;;;;12.30;3.47;;;;;;;25.46;38.33;99612.28;4980207;28;96854;-85
2022/05/12 05:09:17;;;;;;;10.32;3.25;;;;;;;25.92;37.17;99606.47;4975866;28;97192;-84
2022/05/12 05:11:43;;;;;;;7.63;2.72;;;;;;;25.77;37.22;99591.97;4970938;28;100417;-84
2022/05/12 05:14:09;;;;;;;7.03;2.80;;;;;;;25.71;37.64;99621.22;4972106;28;97946;-84
2022/05/12 05:16:34;;;;;;;19.67;2.80;;;;;;;25.42;37.39;99629.69;4970400;28;97422;-85
2022/05/12 05:19:00;;;;;;;6.72;2.58;;;;;;;25.94;36.87;99634.00;4972134;28;97129;-84
2022/05/12 05:21:25;;;;;;;6.60;2.80;;;;;;;25.89;36.98;99623.78;4970570;28;98101;-83
2022/05/12 05:23:51;;;;;;;6.05;2.63;;;;;;;25.84;37.18;99644.94;4971832;28;101171;-83
2022/05/12 05:26:17;;;;;;;5.78;2.45;;;;;;;25.69;37.61;99641.19;4989039;28;96732;-84
2022/05/12 05:28:42;;;;;;;8.55;3.20;;;;;;;25.61;37.88;99647.38;4955396;28;96884;-84
2022/05/12 05:31:08;;;;;;;5.40;3.17;;;;;;;26.10;37.26;99638.56;4957002;28;101707;-84
2022/05/12 05:33:34;;;;;;;9.70;3.63;;;;;;;25.88;37.40;99637.38;4970101;28;101127;-83
2022/05/12 05:35:59;;;;;;;8.88;3.22;;;;;;;25.67;38.05;99646.72;4970183;28;96665;-84
2022/05/12 05:38:26;;;;;;;8.70;3.67;;;;;;;26.00;37.83;99662.91;4974949;28;96837;-82
2022/05/12 05:40:51;;;;;;;6.18;3.28;;;;;;;26.85;36.62;99663.34;4956557;28;101022;-84
2022/05/12 05:43:17;;;;;;;8.05;3.17;;;;;;;29.79;32.22;99648.28;4962641;28;101516;-83
2022/05/12 05:45:42;;;;;;;6.72;3.10;;;;;;;31.55;30.22;99647.13;4972417;28;96702;-84
2022/05/12 05:48:08;;;;;;;6.85;3.25;;;;;;;32.79;28.33;99647.63;4975429;28;96773;-84
2022/05/12 05:53:25;;;;;;;6.57;3.00;;;;;;;34.42;25.99;99642.53;4991340;28;96807;-85
2022/05/12 05:55:56;;;;;;;9.50;2.95;;;;;;;35.35;25.21;99648.88;4957497;28;97004;-86
2022/05/12 05:58:22;;;;;;;6.55;2.72;;;;;;;36.22;24.07;99660.22;4974222;28;97064;-84
2022/05/12 06:00:48;;;;;;;8.30;2.67;;;;;;;36.39;23.58;99663.06;4984397;28;101679;-87
2022/05/12 06:03:14;;;;;;;3.42;1.90;;;;;;;36.82;24.72;99667.34;4971460;28;98352;-85
2022/05/12 06:05:41;;;;;;;11.93;2.67;;;;;;;36.96;23.82;99669.81;4952986;28;98286;-87
2022/05/12 06:08:09;;;;;;;7.82;2.60;;;;;;;37.77;22.27;99662.44;4980468;28;96758;-87
2022/05/12 06:10:35;;;;;;;4.88;3.05;;;;;;;37.81;22.65;99667.16;4967098;28;101151;-87
2022/05/12 06:13:02;;;;;;;6.45;2.45;;;;;;;38.55;22.04;99679.13;4967205;28;101617;-87
2022/05/12 06:15:28;;;;;;;8.70;2.88;;;;;;;38.75;21.70;99654.75;4971627;28;96759;-88
2022/05/12 06:17:54;;;;;;;4.63;2.70;;;;;;;38.85;21.50;99654.88;4973330;28;97084;-88
2022/05/12 06:20:21;;;;;;;5.90;2.88;;;;;;;39.24;21.34;99681.44;4968927;28;97526;-83
2022/05/12 06:22:46;;;;;;;7.15;2.80;;;;;;;39.29;21.15;99678.75;4973461;28;100790;-82
2022/05/12 06:25:16;;;;;;;11.85;3.25;;;;;;;39.68;21.02;99674.00;4974116;28;97302;-86
2022/05/12 06:27:41;;;;;;;2.63;2.33;;;;;;;40.09;20.44;99677.16;4989871;28;96917;-87
2022/05/12 06:30:11;;;;;;;3.63;2.30;;;;;;;40.42;20.57;99680.72;4990503;28;100983;-83
2022/05/12 06:32:38;;;;;;;4.03;2.53;;;;;;;40.47;20.17;99680.78;4971467;28;97354;-82
2022/05/12 06:35:05;;;;;;;4.82;2.70;;;;;;;40.50;20.43;99685.72;4965569;28;96723;-83
2022/05/12 06:37:32;;;;;;;5.93;2.50;;;;;;;40.41;20.20;99676.34;4952734;28;97312;-83
2022/05/12 06:39:57;;;;;;;6.97;2.50;;;;;;;40.77;19.94;99682.06;4970198;28;100890;-82
2022/05/12 06:42:23;;;;;;;6.65;2.67;;;;;;;41.31;19.87;99681.78;4976956;28;97976;-84
2022/05/12 06:44:48;;;;;;;8.75;2.63;;;;;;;41.60;19.24;99694.03;4980674;28;96827;-83
2022/05/12 06:47:15;;;;;;;4.55;2.00;;;;;;;41.79;18.72;99691.56;4943381;28;97406;-83
2022/05/12 06:49:41;;;;;;;10.70;2.28;;;;;;;40.51;19.20;99692.88;4979875;28;97954;-83
2022/05/12 06:52:08;;;;;;;8.23;2.80;;;;;;;41.32;18.79;99692.53;4953493;28;101192;-83
2022/05/12 06:54:37;;;;;;;8.68;2.65;;;;;;;41.36;18.66;99698.31;4978254;28;98669;-83
2022/05/12 06:57:04;;;;;;;8.55;2.67;;;;;;;40.51;19.43;99704.69;4970388;28;96865;-83
2022/05/12 06:59:30;;;;;;;9.30;2.70;;;;;;;40.79;18.68;99710.16;4989385;28;97627;-83
2022/05/12 07:01:55;;;;;;;13.18;2.45;;;;;;;41.06;18.56;99716.38;4954469;28;100966;-84
2022/05/12 07:04:24;;;;;;;18.48;3.15;;;;;;;40.67;18.54;99713.06;4973118;28;96932;-83
2022/05/12 07:06:50;;;;;;;28.95;3.17;;;;;;;41.53;18.18;99712.72;4969314;28;97181;-82
2022/05/12 07:09:19;;;;;;;11.90;2.53;;;;;;;42.02;18.20;99734.31;4962104;28;97611;-82
2022/05/12 07:11:46;;;;;;;11.15;2.50;;;;;;;42.30;17.32;99715.59;4968493;28;101409;-83
2022/05/12 07:14:14;;;;;;;8.85;2.55;;;;;;;42.30;17.33;99748.69;4954083;28;97252;-84
2022/05/12 07:16:42;;;;;;;25.80;3.20;;;;;;;42.49;17.20;99729.66;4954682;28;97294;-83
2022/05/12 07:19:08;;;;;;;9.38;2.40;;;;;;;42.29;16.75;99730.47;4963412;28;97631;-83
2022/05/12 07:27:01;;;;;;;14.35;2.63;;;;;;;42.71;17.02;99754.19;4973596;28;97441;-83
2022/05/12 07:29:28;;;;;;;9.00;2.78;;;;;;;43.28;17.23;99746.63;4956601;28;101705;-84
2022/05/12 07:31:54;;;;;;;9.43;2.35;;;;;;;43.03;16.98;99745.59;4965485;28;101365;-83
2022/05/12 07:34:20;;;;;;;5.13;2.47;;;;;;;43.55;16.91;99754.53;4974078;28;98513;-82
2022/05/12 07:36:50;;;;;;;11.27;2.35;;;;;;;43.21;17.10;99748.88;4954116;28;97485;-82
2022/05/12 07:39:17;;;;;;;10.77;2.50;;;;;;;43.38;16.89;99775.03;4953817;28;101980;-82
2022/05/12 07:41:42;;;;;;;20.83;3.50;;;;;;;43.50;17.14;99780.22;4961814;28;97363;-82
2022/05/12 07:44:09;;;;;;;15.95;3.00;;;;;;;43.18;17.79;99795.25;4971218;28;97295;-82
2022/05/12 07:46:36;;;;;;;14.77;3.20;;;;;;;42.66;18.22;99795.59;4969666;28;96833;-83
2022/05/12 07:49:02;;;;;;;10.77;2.90;;;;;;;42.89;17.97;99819.88;4970619;28;97905;-83
2022/05/12 07:51:27;;;;;;;7.13;2.60;;;;;;;43.17;17.82;99817.63;4953748;28;101464;-82
2022/05/12 07:53:53;;;;;;;12.55;2.72;;;;;;;43.10;17.82;99817.88;4957731;28;96834;-83
2022/05/12 07:56:23;;;;;;;8.80;2.90;;;;;;;42.89;17.92;99830.91;4990728;28;96839;-83
2022/05/12 07:58:49;;;;;;;7.20;2.70;;;;;;;43.06;17.79;99832.53;4953257;28;101605;-82
2022/05/12 08:01:16;;;;;;;13.32;3.72;;;;;;;43.18;18.12;99817.34;4962128;28;101455;-83
2022/05/12 08:03:41;;;;;;;8.05;2.92;;;;;;;44.15;17.67;99834.66;4971471;28;96868;-83
2022/05/12 08:06:07;;;;;;;11.18;2.83;;;;;;;43.74;17.88;99837.63;4988823;28;96969;-82
2022/05/12 08:08:35;;;;;;;12.68;3.60;;;;;;;43.81;17.57;99851.94;4969984;28;97226;-83
2022/05/12 08:11:02;;;;;;;6.13;2.95;;;;;;;43.23;17.38;99854.31;4986530;28;101551;-82
2022/05/12 08:13:28;;;;;;;9.23;3.33;;;;;;;42.59;18.44;99852.94;4988556;28;96881;-82
2022/05/12 08:15:54;;;;;;;13.70;3.97;;;;;;;42.99;18.39;99882.50;4957428;28;97366;-82
2022/05/12 08:18:22;;;;;;;6.05;2.67;;;;;;;43.06;18.32;99874.78;4990242;28;97061;-83
2022/05/12 08:20:48;;;;;;;8.35;3.33;;;;;;;43.26;18.04;99870.31;4990019;28;97940;-82
2022/05/12 08:23:15;;;;;;;8.07;3.03;;;;;;;43.22;17.96;99872.81;4970018;28;97261;-83
2022/05/12 08:25:41;;;;;;;8.98;3.22;;;;;;;42.28;18.89;99884.03;4972624;28;96826;-82
2022/05/12 08:28:07;;;;;;;4.60;3.00;;;;;;;42.12;19.25;99881.50;4972515;28;98028;-82
2022/05/12 08:30:33;;;;;;;9.20;2.60;;;;;;;43.13;18.46;99894.66;4974464;28;101244;-82
2022/05/12 08:32:59;;;;;;;16.67;3.30;;;;;;;43.23;17.76;99901.25;4958948;28;96705;-82
2022/05/12 08:35:26;;;;;;;7.60;2.53;;;;;;;43.07;17.50;99903.19;4987490;28;97028;-83
2022/05/12 08:37:51;;;;;;;11.35;3.90;;;;;;;43.42;17.67;99915.31;4971384;28;101896;-83
2022/05/12 08:40:30;;;;;;;6.75;3.38;;;;;;;42.95;17.86;99912.59;4975460;28;101224;-80
2022/05/12 08:42:59;;;;;;;13.43;3.55;;;;;;;43.20;17.96;99922.00;4992597;28;96736;-81
2022/05/12 08:45:25;;;;;;;12.20;2.80;;;;;;;42.53;18.06;99920.25;4962046;28;97308;-84
2022/05/12 08:47:51;;;;;;;11.15;2.75;;;;;;;43.47;17.50;99927.19;4972411;28;97750;-83
2022/05/12 08:50:31;;;;;;;8.20;2.60;;;;;;;41.80;18.67;99908.13;4961224;28;101190;-83
2022/05/12 08:53:03;;;;;;;4.82;2.33;;;;;;;39.59;20.17;99929.00;4975273;28;96776;-83
2022/05/12 08:55:35;;;;;;;4.53;1.98;;;;;;;39.47;20.39;99909.03;4969602;28;97065;-83
2022/05/12 08:58:20;;;;;;;7.93;2.45;;;;;;;37.01;22.80;99918.84;4960034;28;100903;-83
2022/05/12 09:00:59;;;;;;;13.65;2.90;;;;;;;38.02;22.00;99934.09;4981514;28;101197;-82
2022/05/12 09:03:50;;;;;;;12.55;3.05;;;;;;;40.41;19.82;99949.31;4960751;28;96906;-83
2022/05/12 09:06:22;;;;;;;5.15;2.05;;;;;;;40.84;19.58;99946.75;4973667;28;97475;-83
2022/05/12 09:09:00;;;;;;;10.38;2.30;;;;;;;41.31;19.04;99959.81;4971996;28;101249;-83
2022/05/12 09:11:42;;;;;;;12.68;2.45;;;;;;;40.63;19.45;99964.97;4984945;28;97750;-82
2022/05/12 09:14:33;;;;;;;8.32;2.25;;;;;;;40.56;19.58;99956.91;4940498;28;96811;-84
2022/05/12 09:17:00;;;;;;;11.63;2.75;;;;;;;37.85;22.12;99963.28;4958969;28;96779;-87
2022/05/12 09:19:26;;;;;;;12.43;2.88;;;;;;;36.90;22.74;99972.41;4985594;28;98621;-84
2022/05/12 09:21:52;;;;;;;9.05;2.40;;;;;;;37.56;22.28;99978.78;4989146;28;97979;-83
2022/05/12 09:24:17;;;;;;;9.57;2.75;;;;;;;37.17;22.96;99987.34;4972848;28;97226;-83
2022/05/12 09:26:47;;;;;;;11.57;2.65;;;;;;;36.11;23.58;99990.66;4991300;28;96908;-83
2022/05/12 09:29:20;;;;;;;12.77;2.40;;;;;;;36.02;23.83;99984.63;4973238;28;101223;-83
2022/05/12 09:31:52;;;;;;;6.20;3.03;;;;;;;36.27;23.63;99999.06;4971042;28;101410;-83
2022/05/12 09:34:26;;;;;;;12.80;2.03;;;;;;;35.92;24.14;99992.50;4968399;28;96867;-83
2022/05/12 09:36:52;;;;;;;15.88;2.83;;;;;;;36.81;23.31;100007.44;4982119;28;97007;-83
2022/05/12 09:39:38;;;;;;;13.02;2.65;;;;;;;35.74;23.29;100009.69;4970027;28;101013;-83
2022/05/12 09:42:07;;;;;;;9.70;2.35;;;;;;;35.28;24.17;100003.53;4966139;28;101539;-83
2022/05/12 09:44:34;;;;;;;13.97;2.63;;;;;;;36.27;23.11;100029.09;4970303;28;96776;-83
2022/05/12 09:47:06;;;;;;;8.95;1.80;;;;;;;36.22;21.96;100023.50;4989455;28;97208;-83
2022/05/12 09:49:38;;;;;;;15.23;2.00;;;;;;;36.05;21.77;100008.78;4974319;28;98660;-83
2022/05/12 09:52:26;;;;;;;18.30;3.05;;;;;;;35.89;22.10;100026.56;4975057;28;97887;-83
2022/05/12 09:55:11;;;;;;;9.85;2.20;;;;;;;35.89;22.60;100025.72;4958302;28;96847;-82
2022/05/12 09:57:47;;;;;;;14.15;2.80;;;;;;;35.52;22.23;100007.34;4979028;28;96646;-84
2022/05/12 10:00:32;;;;;;;7.95;1.90;;;;;;;35.63;22.82;100024.06;4957731;28;100991;-83
2022/05/12 10:09:13;;;;;;;9.77;1.65;;;;;;;34.64;23.37;100031.78;4973493;28;96800;-83
2022/05/12 10:11:48;;;;;;;19.60;2.05;;;;;;;34.20;23.14;100052.47;4973400;28;101651;-83
2022/05/12 10:14:33;;;;;;;10.63;2.35;;;;;;;34.16;22.94;100062.94;4990897;28;98397;-83
2022/05/12 10:17:00;;;;;;;14.25;2.30;;;;;;;33.43;23.41;100026.72;4979412;28;96722;-83
2022/05/12 10:19:29;;;;;;;11.93;2.03;;;;;;;33.33;23.66;100054.31;4990762;28;96892;-83
2022/05/12 10:22:15;;;;;;;17.83;2.22;;;;;;;32.77;23.99;100057.28;4974007;28;98040;-84
2022/05/12 10:24:51;;;;;;;9.55;1.90;;;;;;;32.54;24.88;100053.00;4957016;28;101290;-83
2022/05/12 10:27:26;;;;;;;10.15;1.58;;;;;;;32.56;25.11;100061.81;4990891;28;97305;-83
2022/05/12 10:30:05;;;;;;;9.95;2.08;;;;;;;32.18;25.28;100047.78;4945535;28;96850;-82
2022/05/12 10:32:30;;;;;;;12.00;1.95;;;;;;;31.73;25.12;100069.75;4974319;28;97887;-83
2022/05/12 10:35:02;;;;;;;12.25;2.15;;;;;;;31.55;25.48;100082.94;4991530;28;100958;-82
2022/05/12 10:38:05;;;;;;;5.60;1.35;;;;;;;31.01;25.80;100083.38;4991052;28;96784;-83
2022/05/12 10:40:48;;;;;;;11.35;1.45;;;;;;;31.04;26.58;100086.59;4990656;28;97011;-83
2022/05/12 10:43:25;;;;;;;9.88;1.90;;;;;;;31.00;26.60;100076.31;4973431;28;101690;-82
2022/05/12 10:46:12;;;;;;;10.80;1.60;;;;;;;30.93;26.67;100097.91;4991424;28;97940;-83
2022/05/12 10:48:47;;;;;;;7.35;1.27;;;;;;;31.00;27.34;100103.41;4989216;28;96685;-82
2022/05/12 10:51:27;;;;;;;8.20;1.23;;;;;;;30.94;27.66;100105.00;4990735;28;97220;-81
2022/05/12 10:54:21;;;;;;;8.18;1.42;;;;;;;31.09;26.87;100100.38;4954616;28;101603;-82
2022/05/12 10:56:55;;;;;;;12.07;1.50;;;;;;;30.92;28.87;100117.88;4989206;28;97803;-83
2022/05/12 10:59:40;;;;;;;10.63;1.20;;;;;;;30.65;26.36;100101.28;4974187;28;97171;-84
2022/05/12 11:02:14;;;;;;;10.00;1.92;;;;;;;30.70;26.19;100108.84;4971326;28;96957;-84
2022/05/12 11:04:52;;;;;;;8.82;1.70;;;;;;;30.70;26.57;100125.09;4965486;28;100048;-83
2022/05/12 11:07:34;;;;;;;8.25;1.35;;;;;;;30.52;25.97;100102.97;4973753;28;101476;-84
2022/05/12 11:10:22;;;;;;;5.90;1.73;;;;;;;29.96;26.62;100111.44;4994046;28;97346;-83
2022/05/12 11:13:26;;;;;;;5.25;1.02;;;;;;;29.63;26.77;100127.97;4953501;28;96795;-83
2022/05/12 11:15:59;;;;;;;12.18;1.55;;;;;;;29.66;26.82;100129.47;4953971;28;97937;-84
2022/05/12 11:18:49;;;;;;;4.22;1.60;;;;;;;29.52;27.01;100133.75;4967037;28;101961;-84
2022/05/12 11:21:23;;;;;;;14.82;1.30;;;;;;;29.46;27.21;100118.25;4963235;28;96898;-83
2022/05/12 11:24:13;;;;;;;8.43;1.42;;;;;;;29.50;26.55;100125.84;4989778;28;96820;-83
2022/05/12 11:26:46;;;;;;;7.68;1.55;;;;;;;29.48;27.32;100122.47;4984308;28;98448;-84
2022/05/12 11:32:08;;;;;;;7.15;1.52;;;;;;;29.52;27.23;100129.19;4992707;28;96747;-84
2022/05/12 11:34:35;;;;;;;9.13;1.63;;;;;;;29.36;26.80;100123.06;4976493;28;97057;-85
2022/05/12 11:37:30;;;;;;;8.07;1.35;;;;;;;29.20;27.23;100095.09;4958661;28;101227;-84
2022/05/12 11:40:19;;;;;;;8.10;1.33;;;;;;;29.26;27.08;100123.28;4986240;28;100346;-84
2022/05/12 11:45:49;;;;;;;9.00;1.38;;;;;;;29.23;26.93;100126.34;4972641;28;96794;-83
2022/05/12 11:48:33;;;;;;;4.15;1.42;;;;;;;29.01;26.89;100119.84;4992063;28;97949;-84
2022/05/12 11:51:16;;;;;;;11.73;1.48;;;;;;;29.13;26.44;100142.78;4991780;28;101442;-83
2022/05/12 11:53:53;;;;;;;9.30;1.08;;;;;;;29.30;26.26;100143.53;4954921;28;98574;-83
2022/05/12 11:56:39;;;;;;;7.57;1.30;;;;;;;28.96;23.94;100147.38;4979850;28;97596;-83
2022/05/12 11:59:26;;;;;;;6.45;1.60;;;;;;;28.80;24.43;100145.59;4969814;28;101569;-84